Time;durP1;ratioP1;P1;durP2;ratioP2;P2;SDS_P1;SDS_P2;PMS_P1;PMS_P2;Temp;Humidity;BMP_temperature;BMP_pressure;BME280_temperature;BME280_humidity;BME280_pressure;Samples;Min_cycle;Max_cycle;Signal;HPM_P1;HPM_P2
2023/10/28 00:01:15;;;;;;;34.70;24.70;;;13.10;99.90;;;;;;4953871;28;20043;-73
2023/10/28 00:03:41;;;;;;;28.55;22.30;;;13.10;99.90;;;;;;4954363;29;20031;-72
2023/10/28 00:06:08;;;;;;;23.58;19.65;;;13.10;99.90;;;;;;4953131;28;20024;-72
2023/10/28 00:08:34;;;;;;;32.47;20.83;;;13.10;99.90;;;;;;4952498;28;20480;-73
2023/10/28 00:11:01;;;;;;;35.92;19.10;;;13.20;99.90;;;;;;4937055;29;20026;-73
2023/10/28 00:13:27;;;;;;;30.38;18.25;;;13.20;99.90;;;;;;4953278;29;20058;-72
2023/10/28 00:15:53;;;;;;;31.60;20.15;;;13.20;99.90;;;;;;4953464;28;20024;-73
2023/10/28 00:18:19;;;;;;;31.05;19.58;;;13.20;99.90;;;;;;4954427;29;20035;-72
2023/10/28 00:20:45;;;;;;;34.10;23.05;;;13.20;99.90;;;;;;4954064;28;20485;-72
2023/10/28 00:23:14;;;;;;;35.15;24.48;;;13.20;99.90;;;;;;4954026;29;20031;-73
2023/10/28 00:25:41;;;;;;;41.90;27.88;;;13.20;99.90;;;;;;4939667;28;20036;-73
2023/10/28 00:28:07;;;;;;;34.35;30.90;;;13.20;99.90;;;;;;4956191;28;20039;-72
2023/10/28 00:30:33;;;;;;;36.15;30.48;;;13.20;99.90;;;;;;4971492;28;20484;-73
2023/10/28 00:32:59;;;;;;;29.60;19.52;;;13.20;99.90;;;;;;4972111;28;20030;-73
2023/10/28 00:35:29;;;;;;;27.13;20.05;;;13.20;99.90;;;;;;4970978;28;20034;-70
2023/10/28 00:37:55;;;;;;;30.05;19.63;;;13.20;99.90;;;;;;4953040;29;20043;-73
2023/10/28 00:40:31;;;;;;;34.72;20.52;;;13.10;99.90;;;;;;4953681;28;20035;-73
2023/10/28 00:42:58;;;;;;;23.83;21.20;;;13.10;99.90;;;;;;4954019;29;20027;-73
2023/10/28 00:45:24;;;;;;;30.20;23.88;;;13.10;99.90;;;;;;4953282;28;20424;-72
2023/10/28 00:47:53;;;;;;;28.17;22.23;;;13.10;99.90;;;;;;4963595;28;20511;-73
2023/10/28 00:50:20;;;;;;;26.77;23.08;;;13.10;99.90;;;;;;4969815;28;20054;-73
2023/10/28 00:52:47;;;;;;;27.13;23.25;;;13.10;99.90;;;;;;4936936;29;20039;-72
2023/10/28 00:55:14;;;;;;;29.77;24.40;;;13.20;99.90;;;;;;4952515;28;20023;-73
2023/10/28 00:57:41;;;;;;;29.25;24.95;;;13.20;99.90;;;;;;4952625;28;20039;-73
2023/10/28 01:00:08;;;;;;;31.40;26.60;;;13.20;99.90;;;;;;4952129;28;20029;-71
2023/10/28 01:02:39;;;;;;;28.65;25.60;;;13.20;99.90;;;;;;4973101;28;20052;-73
2023/10/28 01:05:05;;;;;;;32.25;26.08;;;13.20;99.90;;;;;;4955680;28;20843;-74
2023/10/28 01:07:31;;;;;;;28.52;25.25;;;13.20;99.90;;;;;;4955520;28;20408;-73
2023/10/28 01:09:57;;;;;;;33.45;26.70;;;13.10;99.90;;;;;;4972060;28;20038;-73
2023/10/28 01:12:24;;;;;;;30.98;24.42;;;13.10;99.90;;;;;;4953646;28;20043;-73
2023/10/28 01:14:50;;;;;;;36.65;24.63;;;13.00;99.90;;;;;;4953680;29;20388;-73
2023/10/28 01:17:16;;;;;;;31.58;25.10;;;13.10;99.90;;;;;;4951694;28;20405;-72
2023/10/28 01:19:42;;;;;;;32.40;29.13;;;13.20;99.90;;;;;;4954958;28;20020;-73
2023/10/28 01:22:08;;;;;;;32.63;29.08;;;13.20;99.90;;;;;;4972838;28;20031;-73
2023/10/28 01:24:35;;;;;;;37.30;26.75;;;13.30;99.90;;;;;;4976697;28;20490;-73
2023/10/28 01:27:02;;;;;;;38.17;34.13;;;13.40;99.90;;;;;;4974860;28;20039;-72
2023/10/28 01:29:32;;;;;;;39.20;32.28;;;13.40;99.90;;;;;;4976534;28;20031;-72
2023/10/28 01:31:58;;;;;;;36.33;28.00;;;13.30;99.90;;;;;;4975761;28;20043;-73
2023/10/28 01:34:25;;;;;;;35.58;27.67;;;13.30;99.90;;;;;;4976118;28;20042;-73
2023/10/28 01:36:51;;;;;;;45.40;33.65;;;13.20;99.90;;;;;;4962614;28;20047;-73
2023/10/28 01:39:17;;;;;;;34.80;25.75;;;13.20;99.90;;;;;;4957164;29;20043;-72
2023/10/28 01:41:43;;;;;;;33.30;21.48;;;13.20;99.90;;;;;;4956725;28;20042;-73
2023/10/28 01:44:11;;;;;;;36.65;22.42;;;13.20;99.90;;;;;;4955752;29;20477;-73
2023/10/28 01:46:37;;;;;;;33.10;18.95;;;13.20;99.90;;;;;;4956095;28;20039;-73
2023/10/28 01:49:04;;;;;;;32.13;19.23;;;13.30;99.90;;;;;;4956965;28;20492;-72
2023/10/28 01:51:30;;;;;;;28.52;23.42;;;13.30;99.90;;;;;;4939540;29;20358;-72
2023/10/28 01:53:56;;;;;;;41.72;21.67;;;13.30;99.90;;;;;;4956912;29;20096;-73
2023/10/28 01:56:22;;;;;;;36.42;22.60;;;13.20;99.90;;;;;;4956451;28;20410;-72
2023/10/28 01:58:48;;;;;;;34.58;24.95;;;13.30;99.90;;;;;;4957208;28;20070;-72
2023/10/28 02:01:14;;;;;;;36.80;25.40;;;13.30;99.90;;;;;;4955976;28;20039;-72
2023/10/28 02:03:41;;;;;;;33.28;19.77;;;13.40;99.90;;;;;;4956194;29;20031;-72
2023/10/28 02:06:07;;;;;;;37.05;22.10;;;13.30;99.90;;;;;;4955183;28;20477;-73
2023/10/28 02:08:33;;;;;;;33.75;20.33;;;13.30;99.90;;;;;;4955504;29;20480;-72
2023/10/28 02:10:59;;;;;;;34.78;21.20;;;13.40;99.90;;;;;;4954918;28;20492;-72
2023/10/28 02:13:26;;;;;;;28.95;21.02;;;13.40;99.90;;;;;;4956352;29;20036;-72
2023/10/28 02:15:52;;;;;;;28.52;20.33;;;13.30;99.90;;;;;;4954348;28;20039;-73
2023/10/28 02:18:18;;;;;;;42.20;21.05;;;13.30;99.90;;;;;;4955946;29;20035;-73
2023/10/28 02:20:45;;;;;;;36.10;21.10;;;13.40;99.90;;;;;;4938655;29;20035;-72
2023/10/28 02:23:13;;;;;;;32.08;22.15;;;13.30;99.90;;;;;;4956252;29;20039;-72
2023/10/28 02:25:43;;;;;;;34.20;22.40;;;13.20;99.90;;;;;;4941155;28;20043;-73
2023/10/28 02:28:09;;;;;;;34.65;20.70;;;13.30;99.90;;;;;;4974253;28;20035;-73
2023/10/28 02:30:39;;;;;;;39.97;20.92;;;13.40;99.90;;;;;;4969590;28;20039;-72
2023/10/28 02:33:06;;;;;;;39.90;24.40;;;13.40;99.90;;;;;;4955588;29;20038;-73
2023/10/28 02:35:33;;;;;;;33.78;21.13;;;13.30;99.90;;;;;;4956145;28;20049;-72
2023/10/28 02:37:59;;;;;;;34.22;20.98;;;13.40;99.90;;;;;;4956099;29;20039;-72
2023/10/28 02:40:25;;;;;;;40.60;22.25;;;13.40;99.90;;;;;;4938562;28;20058;-73
2023/10/28 02:42:52;;;;;;;35.97;25.83;;;13.40;99.90;;;;;;4938759;29;20031;-72
2023/10/28 02:45:18;;;;;;;34.22;27.92;;;13.40;99.90;;;;;;4954120;28;20031;-72
2023/10/28 02:47:44;;;;;;;33.42;28.38;;;13.30;99.90;;;;;;4954186;28;20043;-72
2023/10/28 02:50:10;;;;;;;34.17;21.95;;;13.30;99.90;;;;;;4955717;29;20046;-72
2023/10/28 02:52:36;;;;;;;38.17;24.65;;;13.30;99.90;;;;;;4973703;28;20035;-72
2023/10/28 02:55:03;;;;;;;29.88;21.15;;;13.30;99.90;;;;;;4973686;28;20511;-72
2023/10/28 02:57:29;;;;;;;32.92;19.50;;;13.30;99.90;;;;;;4973329;28;20058;-71
2023/10/28 02:59:55;;;;;;;37.13;20.33;;;13.30;99.90;;;;;;4957346;28;20500;-72
2023/10/28 03:02:21;;;;;;;36.70;20.60;;;13.40;99.90;;;;;;4955973;28;20035;-72
2023/10/28 03:04:47;;;;;;;36.10;21.60;;;13.40;99.90;;;;;;4954457;29;20032;-72
2023/10/28 03:07:14;;;;;;;33.67;21.95;;;13.40;99.90;;;;;;4955152;28;20058;-72
2023/10/28 03:09:40;;;;;;;33.72;21.90;;;13.30;99.90;;;;;;4955341;29;20408;-72
2023/10/28 03:12:07;;;;;;;29.27;19.35;;;13.30;99.90;;;;;;4955101;28;20043;-72
2023/10/28 03:14:33;;;;;;;30.52;21.20;;;13.30;99.90;;;;;;4938336;29;20023;-72
2023/10/28 03:16:59;;;;;;;34.60;21.92;;;13.40;99.90;;;;;;4954110;28;20051;-72
2023/10/28 03:19:25;;;;;;;29.10;18.10;;;13.40;99.90;;;;;;4955104;29;20128;-72
2023/10/28 03:21:51;;;;;;;26.27;16.58;;;13.30;99.90;;;;;;4954972;28;20031;-72
2023/10/28 03:24:17;;;;;;;34.80;17.80;;;13.30;99.90;;;;;;4955059;29;20054;-72
2023/10/28 03:26:43;;;;;;;33.47;21.75;;;13.30;99.90;;;;;;4965673;28;20039;-70
2023/10/28 03:29:09;;;;;;;37.53;22.40;;;13.30;99.90;;;;;;4974267;28;20038;-73
2023/10/28 03:31:35;;;;;;;31.10;19.60;;;13.30;99.90;;;;;;4968750;28;20046;-72
2023/10/28 03:34:01;;;;;;;26.70;19.58;;;13.30;99.90;;;;;;4955038;29;20039;-72
2023/10/28 03:36:28;;;;;;;29.85;19.73;;;13.20;99.90;;;;;;4962481;28;20039;-73
2023/10/28 03:38:55;;;;;;;28.30;20.75;;;13.20;99.90;;;;;;4955020;28;20102;-72
2023/10/28 03:41:21;;;;;;;27.30;20.42;;;13.20;99.90;;;;;;4963703;28;20037;-72
2023/10/28 03:43:47;;;;;;;32.80;23.63;;;13.20;99.90;;;;;;4973599;28;20043;-72
2023/10/28 03:46:20;;;;;;;31.45;24.40;;;13.20;99.90;;;;;;4964449;28;20062;-72
2023/10/28 03:48:47;;;;;;;28.42;20.88;;;13.20;99.90;;;;;;4971552;28;20034;-72
2023/10/28 03:51:13;;;;;;;36.47;19.40;;;13.10;99.90;;;;;;4965180;28;20036;-72
2023/10/28 03:53:39;;;;;;;25.38;19.00;;;13.10;99.90;;;;;;4953411;29;20035;-72
2023/10/28 03:56:05;;;;;;;31.70;23.08;;;13.10;99.90;;;;;;4954399;28;20035;-73
2023/10/28 03:58:32;;;;;;;29.08;18.75;;;13.10;99.90;;;;;;4954218;29;20039;-72
2023/10/28 04:00:59;;;;;;;30.95;25.40;;;13.10;99.90;;;;;;4953757;28;20050;-73
2023/10/28 04:03:25;;;;;;;26.73;18.83;;;13.00;99.90;;;;;;4954486;29;20035;-72
2023/10/28 04:05:51;;;;;;;29.08;19.85;;;13.00;99.90;;;;;;4954275;28;20027;-72
2023/10/28 04:08:17;;;;;;;30.67;24.05;;;13.00;99.90;;;;;;4954538;29;20035;-72
2023/10/28 04:10:43;;;;;;;33.55;30.25;;;13.10;99.90;;;;;;4954073;28;20043;-71
2023/10/28 04:13:12;;;;;;;37.30;33.60;;;13.10;99.90;;;;;;4954060;29;20034;-72
2023/10/28 04:15:39;;;;;;;38.05;32.80;;;13.10;99.90;;;;;;4954121;28;20042;-73
2023/10/28 04:18:05;;;;;;;43.15;31.05;;;13.20;99.90;;;;;;4954086;29;20062;-72
2023/10/28 04:20:33;;;;;;;27.33;17.45;;;13.10;99.90;;;;;;4953883;28;20046;-72
2023/10/28 04:22:59;;;;;;;29.23;23.17;;;13.10;99.90;;;;;;4954150;28;20473;-72
2023/10/28 04:25:25;;;;;;;24.92;16.85;;;13.10;99.90;;;;;;4954445;28;20047;-72
2023/10/28 04:27:51;;;;;;;31.13;27.80;;;13.00;99.90;;;;;;4973246;28;20033;-72
2023/10/28 04:30:18;;;;;;;30.13;27.50;;;13.00;99.90;;;;;;4971333;28;20027;-73
2023/10/28 04:32:44;;;;;;;31.13;26.35;;;13.00;99.90;;;;;;4972199;28;20376;-72
2023/10/28 04:35:10;;;;;;;22.48;19.50;;;13.00;99.90;;;;;;4955766;28;20038;-73
2023/10/28 04:37:37;;;;;;;32.08;26.70;;;13.20;99.90;;;;;;4954205;29;20039;-72
2023/10/28 04:40:05;;;;;;;33.63;29.27;;;13.10;99.90;;;;;;4952918;29;20472;-72
2023/10/28 04:42:31;;;;;;;28.95;26.05;;;13.10;99.90;;;;;;4952230;28;20503;-72
2023/10/28 04:44:57;;;;;;;24.27;20.05;;;13.10;99.90;;;;;;4954042;29;20051;-72
2023/10/28 04:47:26;;;;;;;35.53;32.25;;;13.20;99.90;;;;;;4959056;28;20412;-71
2023/10/28 04:49:52;;;;;;;29.10;19.33;;;13.10;99.90;;;;;;4973340;28;20054;-72
2023/10/28 04:52:20;;;;;;;24.02;20.77;;;13.10;99.90;;;;;;4955997;28;20397;-72
2023/10/28 04:54:46;;;;;;;27.38;17.23;;;13.10;99.90;;;;;;4954494;28;20042;-72
2023/10/28 04:57:12;;;;;;;25.67;18.80;;;13.10;99.90;;;;;;4957208;28;20050;-72
2023/10/28 04:59:39;;;;;;;26.25;16.77;;;13.10;99.90;;;;;;4957754;29;20039;-72
2023/10/28 05:02:06;;;;;;;21.73;17.95;;;13.00;99.90;;;;;;4956864;28;20040;-72
2023/10/28 05:04:32;;;;;;;25.52;22.88;;;13.10;99.90;;;;;;4956594;29;20482;-72
2023/10/28 05:06:58;;;;;;;27.25;21.45;;;13.20;99.90;;;;;;4957528;28;20361;-73
2023/10/28 05:09:24;;;;;;;27.08;23.60;;;13.10;99.90;;;;;;4957565;29;20042;-72
2023/10/28 05:11:56;;;;;;;27.85;24.35;;;13.10;99.90;;;;;;4956944;28;20393;-72
2023/10/28 05:14:23;;;;;;;29.25;17.75;;;13.10;99.90;;;;;;4956312;29;20384;-72
2023/10/28 05:16:54;;;;;;;28.20;22.45;;;13.10;99.90;;;;;;4955512;28;20499;-72
2023/10/28 05:19:22;;;;;;;33.60;30.13;;;13.10;99.90;;;;;;4957401;29;20392;-72
2023/10/28 05:21:48;;;;;;;35.13;32.08;;;13.10;99.90;;;;;;4955955;28;20377;-73
2023/10/28 05:24:15;;;;;;;82.88;77.28;;;13.10;99.90;;;;;;4957316;29;20028;-72
2023/10/28 05:26:42;;;;;;;41.05;38.20;;;13.20;99.90;;;;;;4966182;28;20038;-72
2023/10/28 05:29:09;;;;;;;28.55;25.17;;;13.10;99.90;;;;;;4976641;28;20026;-72
2023/10/28 05:31:35;;;;;;;33.15;30.50;;;13.10;99.90;;;;;;4971053;28;20084;-72
2023/10/28 05:34:02;;;;;;;27.10;24.27;;;13.20;99.90;;;;;;4957219;29;20416;-72
2023/10/28 05:36:28;;;;;;;24.25;20.27;;;13.20;99.90;;;;;;4964365;28;20473;-72
2023/10/28 05:38:54;;;;;;;24.92;22.00;;;13.20;99.90;;;;;;4956923;29;20042;-72
2023/10/28 05:41:21;;;;;;;33.30;30.38;;;13.30;99.90;;;;;;4980614;28;20035;-73
2023/10/28 05:43:48;;;;;;;40.05;36.40;;;13.30;99.90;;;;;;4974988;28;20031;-72
2023/10/28 05:46:14;;;;;;;34.60;31.65;;;13.30;99.90;;;;;;4975478;28;20408;-72
2023/10/28 05:48:40;;;;;;;30.83;27.90;;;13.30;99.90;;;;;;4957898;28;20043;-72
2023/10/28 05:51:09;;;;;;;28.23;25.58;;;13.30;99.90;;;;;;4962780;28;20027;-73
2023/10/28 05:53:35;;;;;;;29.13;25.33;;;13.30;99.90;;;;;;4974684;28;20118;-72
2023/10/28 05:56:01;;;;;;;20.75;17.83;;;13.30;99.90;;;;;;4975411;28;20027;-73
2023/10/28 05:58:27;;;;;;;24.23;21.77;;;13.20;99.90;;;;;;4976050;28;20099;-72
2023/10/28 06:00:54;;;;;;;25.50;21.83;;;13.20;99.90;;;;;;4968148;28;20035;-73
2023/10/28 06:03:20;;;;;;;24.70;22.15;;;13.30;99.90;;;;;;4939734;29;20034;-72
2023/10/28 06:05:46;;;;;;;29.20;23.17;;;13.20;99.90;;;;;;4955302;28;20050;-72
2023/10/28 06:08:13;;;;;;;22.60;19.98;;;13.10;99.90;;;;;;4956664;29;20032;-72
2023/10/28 06:10:39;;;;;;;24.92;20.48;;;13.20;99.90;;;;;;4954889;28;20031;-72
2023/10/28 06:13:08;;;;;;;24.13;21.73;;;13.20;99.90;;;;;;4956373;29;20035;-72
2023/10/28 06:15:34;;;;;;;24.42;21.92;;;13.10;99.90;;;;;;4954413;28;20031;-72
2023/10/28 06:18:00;;;;;;;26.88;18.98;;;13.10;99.90;;;;;;4955375;29;20380;-72
2023/10/28 06:20:27;;;;;;;23.92;20.48;;;13.10;99.90;;;;;;4956125;29;20382;-73
2023/10/28 06:22:53;;;;;;;28.05;21.00;;;13.20;99.90;;;;;;4956352;29;20417;-72
2023/10/28 06:25:19;;;;;;;27.00;22.92;;;13.30;99.90;;;;;;4954711;29;20027;-73
2023/10/28 06:27:45;;;;;;;35.00;31.27;;;13.30;99.90;;;;;;4974784;28;20388;-72
2023/10/28 06:30:14;;;;;;;27.88;24.77;;;13.30;99.90;;;;;;4974548;28;20038;-72
2023/10/28 06:32:41;;;;;;;28.33;25.92;;;13.20;99.90;;;;;;4956147;29;20384;-72
2023/10/28 06:35:07;;;;;;;25.85;23.48;;;13.20;99.90;;;;;;4956154;29;20039;-73
2023/10/28 06:37:33;;;;;;;24.25;21.52;;;13.10;99.90;;;;;;4954815;28;20047;-72
2023/10/28 06:39:59;;;;;;;27.45;24.65;;;13.10;99.90;;;;;;4954529;29;20047;-72
2023/10/28 06:42:26;;;;;;;23.17;19.15;;;13.10;99.90;;;;;;4954781;28;20512;-72
2023/10/28 06:44:52;;;;;;;25.05;21.92;;;13.00;99.90;;;;;;4954847;29;20031;-72
2023/10/28 06:47:18;;;;;;;25.13;20.15;;;13.00;99.90;;;;;;4961181;28;20492;-72
2023/10/28 06:49:44;;;;;;;24.83;16.05;;;13.00;99.90;;;;;;4973921;28;20053;-72
2023/10/28 06:52:10;;;;;;;18.50;14.10;;;13.00;99.90;;;;;;4958833;28;20587;-72
2023/10/28 06:54:37;;;;;;;21.02;16.05;;;12.90;99.90;;;;;;4955522;29;20027;-72
2023/10/28 06:57:03;;;;;;;20.77;14.57;;;12.90;99.90;;;;;;4955401;28;20039;-72
2023/10/28 06:59:30;;;;;;;20.25;15.07;;;12.90;99.90;;;;;;4955587;28;20480;-72
2023/10/28 07:01:56;;;;;;;21.77;15.50;;;12.90;99.90;;;;;;4953844;28;20054;-72
2023/10/28 07:04:22;;;;;;;16.70;14.90;;;12.90;99.90;;;;;;4955586;29;20031;-72
2023/10/28 07:06:49;;;;;;;16.98;15.23;;;12.90;99.90;;;;;;4954489;28;20069;-72
2023/10/28 07:09:17;;;;;;;25.48;17.83;;;12.90;99.90;;;;;;4954087;29;20031;-72
2023/10/28 07:11:44;;;;;;;22.17;19.80;;;12.80;99.90;;;;;;4955613;28;20515;-72
2023/10/28 07:14:10;;;;;;;20.77;19.02;;;12.80;99.90;;;;;;4938143;29;20039;-72
2023/10/28 07:16:36;;;;;;;19.63;17.98;;;12.90;99.90;;;;;;4953387;28;20055;-72
2023/10/28 07:19:02;;;;;;;22.00;19.98;;;12.90;99.90;;;;;;4955176;29;20036;-72
2023/10/28 07:21:28;;;;;;;24.27;22.05;;;13.00;99.90;;;;;;4953347;28;20480;-72
2023/10/28 07:23:54;;;;;;;22.92;21.10;;;13.00;99.90;;;;;;4955121;29;20023;-72
2023/10/28 07:26:22;;;;;;;22.15;20.15;;;13.00;99.90;;;;;;4962254;28;20484;-72
2023/10/28 07:28:48;;;;;;;25.23;22.90;;;13.00;99.90;;;;;;4974506;28;20033;-72
2023/10/28 07:31:16;;;;;;;23.48;21.67;;;13.00;99.90;;;;;;4973355;28;20043;-72
2023/10/28 07:33:42;;;;;;;33.88;30.70;;;13.00;99.90;;;;;;4974219;28;20050;-72
2023/10/28 07:36:08;;;;;;;22.52;18.58;;;13.00;99.90;;;;;;4965722;28;20039;-72
2023/10/28 07:38:34;;;;;;;19.45;17.23;;;13.00;99.90;;;;;;4955072;29;20039;-72
2023/10/28 07:41:00;;;;;;;22.05;19.38;;;13.10;99.90;;;;;;4954519;28;20070;-72
2023/10/28 07:43:26;;;;;;;20.40;18.30;;;13.30;99.90;;;;;;4953179;29;20472;-72
2023/10/28 07:45:53;;;;;;;26.60;24.45;;;13.30;99.90;;;;;;4952934;28;20031;-73
2023/10/28 07:48:19;;;;;;;23.67;21.48;;;13.30;99.90;;;;;;4967726;28;20042;-72
2023/10/28 07:50:45;;;;;;;20.98;19.20;;;13.30;99.90;;;;;;4968801;28;20035;-71
2023/10/28 07:53:11;;;;;;;20.67;19.13;;;13.30;99.90;;;;;;4953625;29;20373;-72
2023/10/28 07:55:38;;;;;;;20.42;16.90;;;13.30;99.90;;;;;;4955032;28;20039;-72
2023/10/28 07:58:05;;;;;;;24.00;22.00;;;13.30;99.90;;;;;;4953442;29;20031;-72
2023/10/28 08:00:32;;;;;;;21.35;19.42;;;13.30;99.90;;;;;;4953714;28;20051;-73
2023/10/28 08:03:00;;;;;;;25.08;22.90;;;13.30;99.90;;;;;;4955294;28;20054;-72
2023/10/28 08:05:26;;;;;;;20.42;18.83;;;13.50;99.90;;;;;;4954542;28;20404;-72
2023/10/28 08:07:52;;;;;;;27.08;25.08;;;13.70;99.90;;;;;;4954505;29;20539;-72
2023/10/28 08:10:22;;;;;;;25.08;23.30;;;13.80;99.90;;;;;;4954213;28;20034;-73
2023/10/28 08:12:57;;;;;;;73.75;69.53;;;13.80;99.90;;;;;;4955148;28;20059;-72
2023/10/28 08:15:28;;;;;;;50.88;47.78;;;13.80;99.90;;;;;;4936615;28;20469;-73
2023/10/28 08:17:55;;;;;;;37.22;34.47;;;13.80;99.90;;;;;;4953153;29;20062;-72
2023/10/28 08:20:21;;;;;;;37.92;35.03;;;13.80;99.90;;;;;;4953582;28;20039;-73
2023/10/28 08:22:47;;;;;;;30.50;28.08;;;13.70;99.90;;;;;;4953041;29;20023;-72
2023/10/28 08:25:16;;;;;;;31.17;28.88;;;13.70;99.90;;;;;;4952849;28;20046;-72
2023/10/28 08:27:44;;;;;;;34.03;31.45;;;13.70;99.90;;;;;;4972881;28;20027;-72
2023/10/28 08:30:16;;;;;;;32.15;29.60;;;13.70;99.90;;;;;;4972404;28;20033;-72
2023/10/28 08:32:42;;;;;;;32.88;30.65;;;13.80;99.90;;;;;;4952972;29;20050;-72
2023/10/28 08:35:09;;;;;;;29.92;27.67;;;13.80;99.90;;;;;;4953783;29;20046;-73
2023/10/28 08:37:36;;;;;;;34.33;31.70;;;13.90;99.90;;;;;;4968583;28;20035;-72
2023/10/28 08:40:06;;;;;;;31.05;28.95;;;13.90;99.90;;;;;;4954163;29;20043;-72
2023/10/28 08:42:33;;;;;;;34.22;31.75;;;13.90;99.90;;;;;;4952692;28;20492;-72
2023/10/28 08:45:01;;;;;;;28.52;26.75;;;13.90;99.90;;;;;;4937199;29;20035;-72
2023/10/28 08:47:27;;;;;;;35.67;33.30;;;13.90;99.90;;;;;;4959234;28;20373;-72
2023/10/28 08:49:53;;;;;;;49.35;46.17;;;13.90;99.90;;;;;;4971880;28;20045;-72
2023/10/28 08:52:21;;;;;;;39.35;36.58;;;13.80;99.90;;;;;;4954732;28;20409;-72
2023/10/28 08:54:47;;;;;;;36.85;33.90;;;13.80;99.90;;;;;;4953020;29;20038;-72
2023/10/28 08:57:13;;;;;;;39.00;35.97;;;13.80;99.90;;;;;;4952648;28;20035;-72
2023/10/28 08:59:39;;;;;;;34.53;31.80;;;13.90;99.90;;;;;;4952724;29;20039;-72
2023/10/28 09:02:08;;;;;;;34.92;32.33;;;13.90;99.90;;;;;;4951849;28;20047;-72
2023/10/28 09:04:34;;;;;;;34.22;31.48;;;13.90;99.90;;;;;;4921032;29;20066;-72
2023/10/28 09:07:04;;;;;;;33.45;30.85;;;13.90;99.90;;;;;;4952296;28;20035;-72
2023/10/28 09:09:30;;;;;;;31.60;29.13;;;14.00;99.90;;;;;;4954596;28;20507;-72
2023/10/28 09:12:00;;;;;;;28.08;25.98;;;14.00;99.90;;;;;;4953190;28;20032;-72
2023/10/28 09:14:26;;;;;;;31.07;28.63;;;14.10;99.90;;;;;;4936183;28;20050;-69
2023/10/28 09:16:55;;;;;;;28.95;26.60;;;14.10;99.90;;;;;;4966946;28;20043;-68
2023/10/28 09:19:21;;;;;;;30.42;28.23;;;14.20;99.90;;;;;;4966720;28;20628;-73
2023/10/28 09:21:48;;;;;;;28.48;26.05;;;14.20;99.90;;;;;;4960604;28;20388;-73
2023/10/28 09:24:18;;;;;;;39.85;37.28;;;14.20;99.90;;;;;;4969975;28;20062;-73
2023/10/28 09:26:46;;;;;;;37.58;34.92;;;14.20;99.90;;;;;;4963916;28;20027;-73
2023/10/28 09:29:25;;;;;;;29.70;27.55;;;14.10;99.90;;;;;;4964762;28;20023;-73
2023/10/28 09:31:51;;;;;;;26.30;24.23;;;14.20;99.90;;;;;;4965293;28;20046;-73
2023/10/28 09:34:17;;;;;;;27.63;25.58;;;14.20;99.90;;;;;;4951630;28;20524;-73
2023/10/28 09:36:43;;;;;;;27.40;25.08;;;14.10;99.90;;;;;;4958609;28;20035;-73
2023/10/28 09:39:10;;;;;;;25.55;23.50;;;14.20;99.90;;;;;;4953458;29;20031;-73
2023/10/28 09:41:38;;;;;;;28.42;25.92;;;14.20;99.90;;;;;;4964654;28;20039;-73
2023/10/28 09:44:04;;;;;;;30.73;28.33;;;14.20;99.90;;;;;;4957503;28;20039;-72
2023/10/28 09:46:32;;;;;;;25.95;24.00;;;14.20;99.90;;;;;;4961411;28;20055;-73
2023/10/28 09:48:59;;;;;;;30.13;27.80;;;14.20;99.90;;;;;;4940020;29;20039;-73
2023/10/28 09:51:25;;;;;;;29.83;27.88;;;14.20;99.90;;;;;;4958947;28;20039;-72
2023/10/28 09:53:58;;;;;;;26.15;24.10;;;14.20;99.90;;;;;;4958842;28;20039;-73
2023/10/28 09:56:25;;;;;;;28.67;26.67;;;14.20;99.90;;;;;;4964838;28;20043;-73
2023/10/28 09:58:54;;;;;;;25.17;23.25;;;14.20;99.90;;;;;;4955254;29;20396;-73
2023/10/28 10:01:31;;;;;;;25.45;23.35;;;14.30;99.90;;;;;;4963181;28;20066;-74
2023/10/28 10:04:04;;;;;;;25.67;23.83;;;14.30;99.90;;;;;;4974736;28;20345;-73
2023/10/28 10:06:30;;;;;;;24.40;22.40;;;14.40;99.90;;;;;;4967788;28;20045;-73
2023/10/28 10:08:56;;;;;;;24.83;22.95;;;14.40;99.90;;;;;;4974577;28;20035;-73
2023/10/28 10:11:23;;;;;;;27.65;25.63;;;14.30;99.90;;;;;;4966068;28;20047;-73
2023/10/28 10:13:49;;;;;;;30.27;28.10;;;14.30;99.90;;;;;;4955202;29;20034;-73
2023/10/28 10:16:54;;;;;;;23.90;22.17;;;14.40;99.90;;;;;;4960130;28;20064;-73
2023/10/28 10:19:47;;;;;;;26.70;24.40;;;14.30;99.90;;;;;;4953953;29;20493;-74
2023/10/28 10:22:15;;;;;;;25.58;23.67;;;14.30;99.90;;;;;;4951213;28;20405;-74
2023/10/28 10:24:50;;;;;;;27.83;25.90;;;14.30;99.90;;;;;;4954081;29;20039;-74
2023/10/28 10:27:34;;;;;;;29.70;27.75;;;14.30;99.90;;;;;;4952845;28;20051;-74
2023/10/28 10:30:08;;;;;;;30.10;28.05;;;14.30;99.90;;;;;;4935264;29;20405;-72
2023/10/28 10:32:47;;;;;;;27.58;25.75;;;14.30;99.90;;;;;;4949318;28;20040;-72
2023/10/28 10:35:30;;;;;;;29.83;27.65;;;14.40;99.90;;;;;;4944595;28;20035;-72
2023/10/28 10:38:06;;;;;;;26.83;25.15;;;14.30;99.90;;;;;;4953143;29;20051;-72
2023/10/28 10:40:34;;;;;;;30.30;28.38;;;14.30;99.90;;;;;;4950875;28;20043;-71
2023/10/28 10:43:06;;;;;;;30.38;28.55;;;14.30;99.90;;;;;;4953508;29;20186;-72
2023/10/28 10:45:34;;;;;;;28.23;26.73;;;14.30;99.90;;;;;;4952534;28;20047;-72
2023/10/28 10:48:04;;;;;;;35.13;33.20;;;14.30;99.90;;;;;;4950080;29;20038;-72
2023/10/28 10:50:31;;;;;;;27.83;26.17;;;14.20;99.90;;;;;;4936740;28;20054;-71
2023/10/28 10:52:58;;;;;;;29.25;27.50;;;14.20;99.90;;;;;;4952895;28;20043;-71
2023/10/28 10:55:24;;;;;;;24.92;23.30;;;14.20;99.90;;;;;;4956522;28;20043;-71
2023/10/28 10:57:53;;;;;;;25.83;24.23;;;14.20;99.90;;;;;;4956900;28;20051;-71
2023/10/28 11:00:20;;;;;;;23.00;21.40;;;14.20;99.90;;;;;;4953993;28;20043;-71
2023/10/28 11:02:48;;;;;;;24.77;23.27;;;14.20;99.90;;;;;;4941151;28;20043;-71
2023/10/28 11:05:15;;;;;;;26.25;24.75;;;14.20;99.90;;;;;;4963847;28;20511;-72
2023/10/28 11:07:45;;;;;;;26.98;25.52;;;14.20;99.90;;;;;;4972981;28;20504;-72
2023/10/28 11:10:11;;;;;;;25.20;23.53;;;14.10;99.90;;;;;;4961709;28;20051;-71
2023/10/28 11:12:38;;;;;;;28.08;26.58;;;14.10;99.90;;;;;;4954750;29;20039;-71
2023/10/28 11:15:05;;;;;;;27.30;25.73;;;14.10;99.90;;;;;;4954370;28;20602;-72
2023/10/28 11:17:31;;;;;;;25.67;23.90;;;14.10;99.90;;;;;;4961987;28;20051;-72
2023/10/28 11:20:03;;;;;;;25.50;23.80;;;14.10;99.90;;;;;;4969301;28;20047;-72
2023/10/28 11:22:30;;;;;;;26.30;24.50;;;14.10;99.90;;;;;;4963213;28;20046;-72
2023/10/28 11:24:56;;;;;;;29.35;27.20;;;14.10;99.90;;;;;;4972566;28;20034;-73
2023/10/28 11:27:26;;;;;;;33.45;31.42;;;14.20;99.90;;;;;;4947382;28;20050;-72
2023/10/28 11:29:57;;;;;;;30.10;27.88;;;14.20;99.90;;;;;;4955646;28;20500;-70
2023/10/28 11:32:24;;;;;;;34.33;32.03;;;14.30;99.90;;;;;;4968049;28;20043;-70
2023/10/28 11:34:53;;;;;;;36.58;33.75;;;14.30;99.90;;;;;;4965001;28;20047;-71
2023/10/28 11:37:22;;;;;;;37.03;34.78;;;14.40;99.90;;;;;;4957570;28;20054;-71
2023/10/28 11:39:48;;;;;;;27.83;25.75;;;14.40;99.90;;;;;;4954386;28;20031;-71
2023/10/28 11:42:15;;;;;;;28.67;26.52;;;14.40;99.90;;;;;;4966267;28;20043;-71
2023/10/28 11:44:49;;;;;;;30.45;28.23;;;14.50;99.90;;;;;;4954155;28;20033;-71
2023/10/28 11:47:15;;;;;;;26.65;24.65;;;14.50;99.90;;;;;;4955533;28;20043;-71
2023/10/28 11:49:41;;;;;;;26.40;24.40;;;14.60;99.90;;;;;;4957055;28;20030;-71
2023/10/28 11:52:09;;;;;;;26.63;24.75;;;14.60;99.90;;;;;;4972954;28;20066;-70
2023/10/28 11:54:35;;;;;;;27.35;25.63;;;14.70;99.90;;;;;;4973868;28;20039;-71
2023/10/28 11:57:01;;;;;;;31.95;29.83;;;14.70;99.90;;;;;;4965178;28;20724;-71
2023/10/28 11:59:28;;;;;;;37.00;34.72;;;14.80;99.90;;;;;;4970710;28;20075;-71
2023/10/28 12:01:54;;;;;;;32.47;30.65;;;14.90;99.90;;;;;;4953060;28;20620;-71
2023/10/28 12:04:24;;;;;;;32.97;30.90;;;14.90;99.90;;;;;;4965760;28;20431;-71
2023/10/28 12:06:51;;;;;;;41.13;38.72;;;15.00;99.90;;;;;;4970047;28;20051;-71
2023/10/28 12:09:17;;;;;;;35.08;32.92;;;15.00;99.90;;;;;;4973274;28;20042;-71
2023/10/28 12:11:44;;;;;;;37.78;35.40;;;15.00;99.90;;;;;;4987239;28;20034;-71
2023/10/28 12:14:12;;;;;;;31.63;29.88;;;15.00;99.90;;;;;;4973140;28;20027;-71
2023/10/28 12:16:38;;;;;;;30.52;28.40;;;15.00;99.90;;;;;;4971518;28;20058;-71
2023/10/28 12:19:05;;;;;;;31.63;29.83;;;15.10;99.90;;;;;;4973317;28;20387;-71
2023/10/28 12:21:32;;;;;;;47.13;44.35;;;15.10;99.90;;;;;;4961571;28;20043;-71
2023/10/28 12:23:58;;;;;;;48.25;45.30;;;15.10;99.90;;;;;;4952937;29;20027;-71
2023/10/28 12:26:25;;;;;;;33.15;30.92;;;15.20;99.90;;;;;;4954466;28;20050;-71
2023/10/28 12:28:52;;;;;;;34.90;32.70;;;15.30;99.90;;;;;;4968508;28;20042;-70